Time;durP1;ratioP1;P1;durP2;ratioP2;P2;SDS_P1;SDS_P2;PMS_P1;PMS_P2;Temp;Humidity;BMP_temperature;BMP_pressure;BME280_temperature;BME280_humidity;BME280_pressure;Samples;Min_cycle;Max_cycle;Signal;HPM_P1;HPM_P2
2022/04/19 05:03:53;;;;;;;8.05;3.78;;;5.30;92.80;;;;;;6189797;23;20013;-84
2022/04/19 05:06:19;;;;;;;6.20;3.50;;;5.30;92.70;;;;;;6154220;23;20011;-83
2022/04/19 05:08:46;;;;;;;10.65;4.25;;;5.30;92.70;;;;;;6128054;23;20017;-82
2022/04/19 05:11:11;;;;;;;11.43;4.35;;;5.40;92.60;;;;;;6146431;23;20178;-83
2022/04/19 05:13:38;;;;;;;8.05;3.92;;;5.40;92.50;;;;;;6144270;23;20001;-83
2022/04/19 05:16:04;;;;;;;10.38;4.45;;;5.50;92.30;;;;;;6168537;23;20220;-82
2022/04/19 05:18:31;;;;;;;11.75;4.38;;;5.70;92.50;;;;;;6145090;23;20005;-83
2022/04/19 05:20:57;;;;;;;12.05;4.63;;;5.80;92.10;;;;;;6167423;23;20004;-84
2022/04/19 05:23:23;;;;;;;12.38;5.07;;;6.00;91.90;;;;;;6141945;23;20017;-83
2022/04/19 05:25:49;;;;;;;12.05;4.60;;;6.20;91.80;;;;;;6166805;23;19997;-84
2022/04/19 05:28:16;;;;;;;10.02;4.88;;;6.40;91.20;;;;;;6141540;23;20317;-84
2022/04/19 05:30:42;;;;;;;9.93;4.10;;;6.40;90.70;;;;;;6141764;23;20013;-84
2022/04/19 05:33:11;;;;;;;7.18;3.65;;;6.50;90.50;;;;;;6168675;23;20009;-85
2022/04/19 05:35:38;;;;;;;5.85;3.17;;;6.50;90.30;;;;;;6168888;23;20059;-85
2022/04/19 05:38:05;;;;;;;6.30;3.80;;;6.60;90.50;;;;;;6168427;23;19997;-84
2022/04/19 05:40:33;;;;;;;;;;;6.50;90.20;;;;;;6145143;23;20017;-84
2022/04/19 05:42:59;;;;;;;8.23;3.55;;;6.60;90.20;;;;;;6143972;23;19900;-83
2022/04/19 05:45:27;;;;;;;9.32;3.90;;;6.70;90.10;;;;;;6142861;23;20055;-84
2022/04/19 05:47:53;;;;;;;9.65;4.35;;;6.80;89.60;;;;;;6168875;23;20287;-85
2022/04/19 05:50:20;;;;;;;9.32;4.10;;;6.90;89.10;;;;;;6167640;23;20008;-84
2022/04/19 05:52:46;;;;;;;7.93;4.05;;;6.90;88.90;;;;;;6144431;23;19989;-84
2022/04/19 05:55:14;;;;;;;;;;;7.00;89.00;;;;;;6144076;23;20064;-83
2022/04/19 05:57:40;;;;;;;9.80;4.05;;;7.00;88.90;;;;;;6143601;23;19896;-83
2022/04/19 06:00:07;;;;;;;8.80;4.40;;;7.00;89.20;;;;;;6167099;23;20035;-84
2022/04/19 06:05:27;;;;;;;9.75;4.55;;;7.10;88.70;;;;;;6169170;23;20047;-82
2022/04/19 06:07:54;;;;;;;11.27;4.35;;;7.30;88.00;;;;;;6168408;23;20039;-83
2022/04/19 06:10:22;;;;;;;8.80;3.85;;;7.30;87.40;;;;;;6143196;23;20020;-83
2022/04/19 06:12:50;;;;;;;7.40;4.07;;;7.50;87.50;;;;;;6192781;23;20021;-83
2022/04/19 06:15:16;;;;;;;8.13;3.80;;;7.60;86.90;;;;;;6167483;23;20017;-83
2022/04/19 06:17:42;;;;;;;7.90;4.03;;;7.60;86.20;;;;;;6143074;23;20048;-86
2022/04/19 06:20:20;;;;;;;5.63;3.35;;;7.60;86.60;;;;;;6144839;23;20009;-86
2022/04/19 06:22:46;;;;;;;7.45;4.28;;;7.80;86.40;;;;;;6143302;23;20016;-84
2022/04/19 06:25:16;;;;;;;5.72;3.45;;;7.80;85.80;;;;;;6167507;23;20091;-85
2022/04/19 06:27:41;;;;;;;8.43;3.67;;;7.90;86.30;;;;;;6142734;23;20005;-82
2022/04/19 06:30:11;;;;;;;7.07;3.85;;;7.90;85.80;;;;;;6141428;23;20032;-84
2022/04/19 06:32:45;;;;;;;6.65;3.28;;;8.00;85.40;;;;;;6143343;23;20001;-81
2022/04/19 06:35:12;;;;;;;7.95;4.13;;;8.20;85.40;;;;;;6166982;23;20062;-82
2022/04/19 06:37:38;;;;;;;10.75;4.20;;;8.20;85.20;;;;;;6143344;23;20012;-81
2022/04/19 06:40:11;;;;;;;8.18;4.25;;;8.20;84.50;;;;;;6144734;23;20009;-84
2022/04/19 06:42:37;;;;;;;10.02;4.20;;;8.30;84.60;;;;;;6144302;23;20005;-83
2022/04/19 06:45:27;;;;;;;11.02;4.88;;;8.50;84.40;;;;;;6180723;23;20068;-80
2022/04/19 06:48:02;;;;;;;8.55;4.05;;;8.60;84.00;;;;;;6194250;23;20005;-82
2022/04/19 06:50:39;;;;;;;9.55;4.50;;;8.70;83.90;;;;;;6167868;23;20013;-81
2022/04/19 06:53:12;;;;;;;9.02;4.03;;;8.90;83.10;;;;;;6168030;23;20067;-81
2022/04/19 06:55:53;;;;;;;9.52;4.65;;;9.10;82.40;;;;;;6148047;23;20127;-80
2022/04/19 06:58:20;;;;;;;11.70;4.03;;;9.00;81.90;;;;;;6142614;23;20019;-82
2022/04/19 07:00:46;;;;;;;10.57;4.38;;;9.10;81.90;;;;;;6167280;23;20021;-81
2022/04/19 07:03:13;;;;;;;7.07;4.57;;;9.20;81.60;;;;;;6142109;23;20197;-81
2022/04/19 07:06:18;;;;;;;10.32;4.45;;;9.50;81.30;;;;;;6172838;23;20086;-80
2022/04/19 07:08:45;;;;;;;8.93;4.80;;;9.80;80.50;;;;;;6168614;23;20001;-83
2022/04/19 07:11:12;;;;;;;8.02;4.50;;;10.00;79.30;;;;;;6141539;23;20009;-83
2022/04/19 07:13:44;;;;;;;8.02;4.40;;;10.10;78.90;;;;;;6169077;23;20013;-79
2022/04/19 07:16:15;;;;;;;8.73;4.63;;;10.30;78.20;;;;;;6142852;23;20073;-82
2022/04/19 07:18:41;;;;;;;6.32;3.95;;;10.40;77.40;;;;;;6142961;23;20009;-82
2022/04/19 07:26:49;;;;;;;7.97;4.55;;;10.80;77.00;;;;;;6090292;23;20251;-83
2022/04/19 07:29:18;;;;;;;8.52;4.40;;;11.00;76.00;;;;;;6167366;23;20100;-82
2022/04/19 07:31:47;;;;;;;8.75;4.60;;;11.00;75.50;;;;;;6167163;23;20024;-84
2022/04/19 07:34:35;;;;;;;9.38;4.78;;;11.00;75.60;;;;;;6160805;23;20294;-84
2022/04/19 07:37:01;;;;;;;10.48;4.90;;;11.10;75.50;;;;;;6142819;23;20032;-82
2022/04/19 07:39:29;;;;;;;9.85;4.60;;;11.20;75.40;;;;;;6143265;23;20008;-82
2022/04/19 07:42:00;;;;;;;8.68;4.60;;;11.30;75.00;;;;;;6147427;23;20061;-82
2022/04/19 07:44:49;;;;;;;;;;;11.40;75.10;;;;;;6171944;23;20005;-81
2022/04/19 07:47:14;;;;;;;8.20;3.75;;;11.50;75.10;;;;;;6167333;23;19927;-80
2022/04/19 07:49:43;;;;;;;9.38;4.50;;;11.90;74.50;;;;;;6145312;23;20016;-85
2022/04/19 07:52:10;;;;;;;;;;;12.10;73.50;;;;;;6167953;23;20005;-83
2022/04/19 07:54:36;;;;;;;9.50;4.70;;;12.20;73.00;;;;;;6165692;23;19896;-86
2022/04/19 07:57:02;;;;;;;8.88;4.85;;;12.30;72.60;;;;;;6166849;23;20080;-84
2022/04/19 07:59:31;;;;;;;7.88;4.03;;;12.30;72.80;;;;;;6142546;23;20100;-83
2022/04/19 08:01:57;;;;;;;6.85;4.22;;;12.40;72.80;;;;;;6141260;23;20036;-80
2022/04/19 08:04:22;;;;;;;8.60;4.07;;;12.20;73.30;;;;;;6141749;23;20054;-82
2022/04/19 08:06:48;;;;;;;8.05;4.45;;;12.40;72.80;;;;;;6142392;23;20190;-81
2022/04/19 08:09:16;;;;;;;7.82;4.10;;;12.50;72.10;;;;;;6166115;23;20013;-81
2022/04/19 08:11:42;;;;;;;8.45;4.25;;;12.50;72.30;;;;;;6166413;23;20005;-80
2022/04/19 08:14:09;;;;;;;12.10;5.00;;;12.60;72.10;;;;;;6166568;23;20207;-82
2022/04/19 08:16:35;;;;;;;10.23;4.88;;;12.60;72.10;;;;;;6165854;23;20063;-78
2022/04/19 08:19:01;;;;;;;7.80;3.83;;;12.60;71.90;;;;;;6142277;23;20279;-81
2022/04/19 08:21:27;;;;;;;13.02;4.57;;;12.60;72.20;;;;;;6166318;23;20297;-82
2022/04/19 08:23:53;;;;;;;8.80;4.45;;;12.80;71.60;;;;;;6166412;23;20016;-83
2022/04/19 08:26:20;;;;;;;9.00;4.32;;;12.90;71.10;;;;;;6166013;23;20193;-79
2022/04/19 08:28:46;;;;;;;8.85;3.88;;;13.20;71.40;;;;;;6141806;23;20004;-83
2022/04/19 08:31:12;;;;;;;11.68;5.00;;;13.40;70.90;;;;;;6140599;23;20021;-83
2022/04/19 08:33:38;;;;;;;10.15;4.80;;;13.70;70.10;;;;;;6142005;23;19997;-80
2022/04/19 08:36:06;;;;;;;11.23;4.57;;;13.80;70.00;;;;;;6141563;23;20009;-82
2022/04/19 08:38:32;;;;;;;10.68;4.32;;;13.90;68.10;;;;;;6165819;23;19993;-80
2022/04/19 08:41:00;;;;;;;9.32;4.35;;;14.00;67.90;;;;;;6166819;23;20012;-81
2022/04/19 08:43:26;;;;;;;8.57;4.70;;;14.10;64.80;;;;;;6166371;23;20013;-78
2022/04/19 08:45:52;;;;;;;7.50;3.92;;;14.10;64.50;;;;;;6192681;23;20222;-78
2022/04/19 08:48:24;;;;;;;7.85;3.83;;;14.10;63.90;;;;;;6192216;23;20048;-78
2022/04/19 08:50:51;;;;;;;8.50;4.18;;;14.20;63.80;;;;;;6166740;23;20013;-82
2022/04/19 08:58:46;;;;;;;7.57;3.75;;;14.70;60.00;;;;;;6192870;23;20052;-79
2022/04/19 09:01:12;;;;;;;7.22;3.75;;;14.90;60.30;;;;;;6165781;23;20072;-78
2022/04/19 09:03:39;;;;;;;8.35;4.05;;;15.00;60.90;;;;;;6165967;23;20052;-78
2022/04/19 09:06:05;;;;;;;9.23;4.25;;;15.00;61.10;;;;;;6193441;23;20278;-81
2022/04/19 09:08:31;;;;;;;7.50;3.90;;;14.90;60.90;;;;;;6194542;23;20005;-81
2022/04/19 09:11:08;;;;;;;6.93;4.00;;;14.90;61.90;;;;;;6194795;23;20064;-80
2022/04/19 09:13:35;;;;;;;8.30;3.63;;;15.00;61.90;;;;;;6167725;23;20009;-81
2022/04/19 09:16:06;;;;;;;6.40;3.90;;;15.10;60.50;;;;;;6193902;23;20013;-83
2022/04/19 09:18:35;;;;;;;8.90;3.80;;;15.20;60.50;;;;;;6167969;23;20008;-81
2022/04/19 09:21:05;;;;;;;4.97;2.40;;;15.20;59.70;;;;;;6168690;23;20066;-80
2022/04/19 09:23:32;;;;;;;4.95;2.55;;;15.30;57.40;;;;;;6194476;23;20056;-80
2022/04/19 09:26:00;;;;;;;5.60;2.83;;;15.30;57.70;;;;;;6194680;23;19997;-81
2022/04/19 09:28:28;;;;;;;6.07;3.13;;;15.30;57.50;;;;;;6194165;23;20283;-79
2022/04/19 09:30:58;;;;;;;5.40;2.53;;;15.20;57.60;;;;;;6166980;23;20302;-83
2022/04/19 09:33:29;;;;;;;7.65;3.05;;;15.30;58.20;;;;;;6143511;23;20313;-81
2022/04/19 09:36:03;;;;;;;7.78;2.85;;;15.60;58.90;;;;;;6167938;23;20183;-82
2022/04/19 09:38:40;;;;;;;8.10;3.28;;;15.60;58.40;;;;;;6193841;23;20012;-80
2022/04/19 09:41:31;;;;;;;3.85;2.08;;;15.90;59.10;;;;;;6194466;23;20289;-82
2022/04/19 09:44:06;;;;;;;7.97;2.40;;;15.90;56.30;;;;;;6168534;23;20009;-80
2022/04/19 09:46:32;;;;;;;5.07;2.30;;;16.00;57.50;;;;;;6192935;23;20203;-80
2022/04/19 09:48:58;;;;;;;5.80;2.50;;;16.10;57.30;;;;;;6194549;23;20001;-82
2022/04/19 09:51:31;;;;;;;6.25;2.85;;;16.20;56.80;;;;;;6142797;23;20016;-80
2022/04/19 09:53:57;;;;;;;5.32;2.80;;;16.40;56.80;;;;;;6194302;23;20195;-81
2022/04/19 09:56:23;;;;;;;5.78;3.13;;;16.50;56.00;;;;;;6167385;23;20013;-79
2022/04/19 09:58:51;;;;;;;7.43;2.78;;;16.40;56.50;;;;;;6194847;23;20064;-81
2022/04/19 10:09:35;;;;;;;6.63;2.60;;;16.80;57.00;;;;;;6194055;23;20008;-80
2022/04/19 10:12:02;;;;;;;8.50;2.55;;;16.90;54.80;;;;;;6168240;23;20275;-82
2022/04/19 10:14:29;;;;;;;5.53;2.78;;;16.90;54.30;;;;;;6194505;23;20001;-80
2022/04/19 10:16:59;;;;;;;4.45;2.55;;;16.90;54.80;;;;;;6142667;23;20005;-81
2022/04/19 10:19:27;;;;;;;5.95;2.47;;;17.00;55.10;;;;;;6166472;23;20321;-82
2022/04/19 10:21:54;;;;;;;7.30;2.80;;;17.10;54.40;;;;;;6168263;23;20009;-80
2022/04/19 10:24:21;;;;;;;4.55;2.67;;;17.20;52.90;;;;;;6194433;23;20261;-80
2022/04/19 10:26:51;;;;;;;20.02;9.35;;;17.10;52.40;;;;;;6168335;23;20032;-82
2022/04/19 10:29:18;;;;;;;6.63;2.50;;;17.20;52.60;;;;;;6143801;23;20029;-81
2022/04/19 10:32:01;;;;;;;6.75;2.88;;;17.30;52.50;;;;;;6193798;23;20029;-79
2022/04/19 10:34:30;;;;;;;4.75;2.80;;;17.40;52.30;;;;;;6141875;23;20009;-80
2022/04/19 10:36:58;;;;;;;5.65;2.92;;;17.60;53.10;;;;;;6193921;23;19989;-80
2022/04/19 10:39:25;;;;;;;5.32;2.95;;;17.80;51.90;;;;;;6193954;23;20012;-83
2022/04/19 10:42:03;;;;;;;4.53;2.83;;;17.80;51.40;;;;;;6194192;23;20009;-79
2022/04/19 10:44:30;;;;;;;4.75;2.88;;;17.80;51.70;;;;;;6193859;23;20008;-78
2022/04/19 10:47:26;;;;;;;4.43;2.83;;;17.80;52.10;;;;;;6193547;23;20013;-81
2022/04/19 10:50:06;;;;;;;5.20;2.92;;;17.80;52.90;;;;;;6165549;23;20005;-80
2022/04/19 10:52:38;;;;;;;6.35;3.15;;;17.90;52.30;;;;;;6193211;23;20008;-79
2022/04/19 10:55:06;;;;;;;5.60;3.10;;;18.00;51.30;;;;;;6167879;23;20001;-80
2022/04/19 11:01:02;;;;;;;17.55;3.92;;;18.20;52.00;;;;;;6192583;23;20346;-80
2022/04/19 11:03:35;;;;;;;7.15;3.45;;;18.50;52.30;;;;;;6193004;23;20020;-80
2022/04/19 11:06:05;;;;;;;8.10;3.72;;;18.40;51.80;;;;;;6168315;23;20008;-81
2022/04/19 11:08:38;;;;;;;7.47;3.42;;;18.40;52.10;;;;;;6193988;23;20001;-78
2022/04/19 11:11:22;;;;;;;7.07;3.65;;;18.50;51.60;;;;;;6193720;23;20282;-80
2022/04/19 11:14:19;;;;;;;4.88;3.15;;;18.70;51.50;;;;;;6194056;23;20035;-80
2022/04/19 11:17:17;;;;;;;5.15;3.13;;;19.30;50.10;;;;;;6166836;23;20021;-82
2022/04/19 11:19:55;;;;;;;6.80;2.97;;;20.20;48.90;;;;;;6193277;23;20028;-80
2022/04/19 11:22:29;;;;;;;5.47;2.83;;;21.10;47.50;;;;;;6193477;23;20008;-80
2022/04/19 11:25:07;;;;;;;17.27;3.92;;;22.30;46.60;;;;;;6194383;23;20012;-80
2022/04/19 11:27:51;;;;;;;5.32;3.47;;;23.40;45.80;;;;;;6192906;23;20015;-82
2022/04/19 11:30:17;;;;;;;5.35;3.13;;;24.20;44.60;;;;;;6166385;23;20015;-82
2022/04/19 11:32:49;;;;;;;5.85;3.25;;;25.10;43.90;;;;;;6192732;23;19998;-82
2022/04/19 11:35:16;;;;;;;13.85;3.90;;;26.00;42.90;;;;;;6193578;23;20059;-81
2022/04/19 11:37:43;;;;;;;4.70;3.42;;;26.30;42.30;;;;;;6193103;23;20008;-79
2022/04/19 11:48:50;;;;;;;4.88;3.53;;;28.30;40.60;;;;;;6193465;23;20187;-81
2022/04/19 11:51:19;;;;;;;3.83;2.75;;;28.50;39.40;;;;;;6193653;23;20020;-82
2022/04/19 11:53:45;;;;;;;4.90;3.03;;;29.10;39.60;;;;;;6192724;23;20005;-80
2022/04/19 11:56:11;;;;;;;4.97;2.67;;;29.00;38.90;;;;;;6167434;23;20001;-81
2022/04/19 11:58:40;;;;;;;4.80;2.80;;;29.70;39.20;;;;;;6166450;23;20109;-80
2022/04/19 12:01:08;;;;;;;3.90;2.63;;;30.20;38.50;;;;;;6142085;23;20286;-82
2022/04/19 12:03:36;;;;;;;5.25;2.90;;;31.20;38.30;;;;;;6166513;23;20291;-81
2022/04/19 12:06:19;;;;;;;3.78;2.60;;;31.80;36.90;;;;;;6166940;23;20016;-84
2022/04/19 12:08:49;;;;;;;3.58;2.35;;;31.90;37.30;;;;;;6166915;23;20033;-83
2022/04/19 12:11:26;;;;;;;4.20;3.00;;;32.40;37.10;;;;;;6193180;23;20013;-84
2022/04/19 12:13:52;;;;;;;4.63;3.13;;;33.50;36.60;;;;;;6193508;23;20001;-83
2022/04/19 12:16:40;;;;;;;3.53;2.80;;;33.00;37.00;;;;;;6192820;23;20020;-83
2022/04/19 12:19:11;;;;;;;5.05;2.67;;;33.30;36.50;;;;;;6193988;23;20005;-83
2022/04/19 12:21:42;;;;;;;5.03;3.67;;;32.60;37.00;;;;;;6193095;23;20020;-83
2022/04/19 12:24:17;;;;;;;4.85;3.15;;;32.60;36.20;;;;;;6142622;23;20279;-81
2022/04/19 12:26:43;;;;;;;6.88;3.30;;;32.40;37.30;;;;;;6166348;23;20187;-83
2022/04/19 12:29:13;;;;;;;5.05;2.88;;;32.40;36.50;;;;;;6142529;23;20017;-81
2022/04/19 12:31:44;;;;;;;6.18;3.13;;;32.50;36.80;;;;;;6192019;23;20025;-81
2022/04/19 12:34:12;;;;;;;3.75;2.65;;;33.50;36.70;;;;;;6167476;23;20005;-81
2022/04/19 12:36:42;;;;;;;4.03;2.70;;;33.40;37.30;;;;;;6192882;23;20009;-81
2022/04/19 12:39:08;;;;;;;4.57;3.00;;;34.00;36.10;;;;;;6167336;23;20291;-79
2022/04/19 12:41:44;;;;;;;9.30;3.55;;;34.30;35.70;;;;;;6142891;23;20009;-82
2022/04/19 12:44:14;;;;;;;5.65;3.08;;;33.90;36.10;;;;;;6196126;23;20256;-80
2022/04/19 12:46:51;;;;;;;4.00;2.70;;;34.80;35.80;;;;;;6193970;23;20017;-81
2022/04/19 12:49:22;;;;;;;4.32;2.80;;;34.90;35.00;;;;;;6195919;23;20060;-83
2022/04/19 12:52:09;;;;;;;4.50;2.42;;;34.50;34.60;;;;;;6194626;23;20009;-85
2022/04/19 12:54:36;;;;;;;5.00;2.90;;;34.90;35.20;;;;;;6168621;23;20004;-83
2022/04/19 12:57:09;;;;;;;4.20;2.60;;;35.70;34.40;;;;;;6196180;23;20263;-83
2022/04/19 12:59:35;;;;;;;5.03;2.80;;;36.00;34.80;;;;;;6168926;23;20012;-83
2022/04/19 13:02:01;;;;;;;4.43;3.53;;;35.80;34.40;;;;;;6168513;23;20013;-83
2022/04/19 13:04:28;;;;;;;4.88;2.60;;;36.50;34.30;;;;;;6195131;23;20001;-84
2022/04/19 13:12:26;;;;;;;4.15;3.00;;;37.90;33.70;;;;;;6168888;23;20315;-79
2022/04/19 13:14:58;;;;;;;4.68;2.65;;;37.50;33.70;;;;;;6194699;23;20357;-81
2022/04/19 13:17:30;;;;;;;5.10;3.17;;;37.80;33.90;;;;;;6168219;23;20013;-81
2022/04/19 13:19:56;;;;;;;3.92;3.20;;;37.60;33.80;;;;;;6194778;23;20025;-81
2022/04/19 13:22:22;;;;;;;4.00;2.75;;;37.20;34.50;;;;;;6194747;23;20009;-77
2022/04/19 13:24:50;;;;;;;3.95;2.58;;;37.80;33.90;;;;;;6194139;23;20476;-78
2022/04/19 13:27:17;;;;;;;4.82;3.10;;;38.10;33.60;;;;;;6195083;23;20001;-79
2022/04/19 13:29:44;;;;;;;3.47;2.30;;;38.10;33.30;;;;;;6194450;23;20001;-81
2022/04/19 13:32:11;;;;;;;2.92;2.20;;;38.00;33.90;;;;;;6193714;23;20498;-79
2022/04/19 13:34:38;;;;;;;4.22;2.10;;;38.00;33.40;;;;;;6194471;23;20001;-79
2022/04/19 13:37:05;;;;;;;2.80;1.80;;;38.00;33.90;;;;;;6194949;23;20005;-82
2022/04/19 13:39:31;;;;;;;4.73;2.17;;;38.00;33.60;;;;;;6194172;23;20009;-82
2022/04/19 13:41:57;;;;;;;4.18;2.15;;;37.80;33.80;;;;;;6143984;23;20016;-78
2022/04/19 13:44:24;;;;;;;4.68;2.38;;;37.90;33.70;;;;;;6168832;23;20345;-78
2022/04/19 13:46:52;;;;;;;2.92;2.45;;;37.90;34.10;;;;;;6193421;23;20359;-79
2022/04/19 13:49:18;;;;;;;2.58;1.83;;;38.20;33.70;;;;;;6168327;23;20044;-80
2022/04/19 13:51:44;;;;;;;3.55;2.50;;;38.00;33.20;;;;;;6194640;23;20028;-83
2022/04/19 13:54:14;;;;;;;3.35;2.47;;;38.40;33.90;;;;;;6144138;23;20279;-81
2022/04/19 13:56:45;;;;;;;4.05;2.75;;;38.00;33.50;;;;;;6193943;23;20025;-84
2022/04/19 13:59:12;;;;;;;2.97;1.85;;;38.10;33.70;;;;;;6168215;23;20056;-81
2022/04/19 14:01:40;;;;;;;3.75;2.40;;;37.90;34.20;;;;;;6193005;23;20013;-81
2022/04/19 14:04:07;;;;;;;4.20;2.20;;;37.90;33.90;;;;;;6194349;23;20005;-82
2022/04/19 14:06:38;;;;;;;2.88;1.98;;;38.70;34.80;;;;;;6167917;23;20043;-82
2022/04/19 14:09:05;;;;;;;3.50;2.20;;;39.30;34.40;;;;;;6168259;23;20001;-79
2022/04/19 14:11:35;;;;;;;3.85;2.83;;;40.40;33.90;;;;;;6142705;23;20047;-80
2022/04/19 14:14:02;;;;;;;3.30;2.38;;;40.70;33.20;;;;;;6194980;23;20143;-82
2022/04/19 14:16:28;;;;;;;;;;;39.30;33.70;;;;;;6195707;23;20013;-82
2022/04/19 14:18:54;;;;;;;2.33;1.80;;;38.90;34.10;;;;;;6195966;23;19996;-79
2022/04/19 14:21:20;;;;;;;5.40;2.45;;;39.80;34.50;;;;;;6194281;23;20012;-83
2022/04/19 14:23:46;;;;;;;3.85;2.00;;;40.30;33.20;;;;;;6168526;23;19989;-79
2022/04/19 14:26:12;;;;;;;3.22;2.15;;;41.00;34.70;;;;;;6170513;23;20001;-81
2022/04/19 14:34:06;;;;;;;5.18;2.90;;;37.40;34.50;;;;;;6194171;23;20012;-81
2022/04/19 14:36:31;;;;;;;3.78;2.33;;;37.90;34.30;;;;;;6194112;23;20009;-82
2022/04/19 14:39:00;;;;;;;3.45;1.73;;;39.50;34.50;;;;;;6168441;23;20310;-81
2022/04/19 14:41:27;;;;;;;4.47;1.60;;;39.80;33.50;;;;;;6194771;23;20008;-82
2022/04/19 14:43:52;;;;;;;3.85;1.83;;;40.30;33.60;;;;;;6193892;23;20001;-82
2022/04/19 14:46:18;;;;;;;2.67;1.42;;;38.70;33.30;;;;;;6192430;23;20031;-83
2022/04/19 14:48:44;;;;;;;3.65;1.73;;;36.60;34.20;;;;;;6167891;23;20032;-82
2022/04/19 14:54:03;;;;;;;2.78;1.50;;;31.70;36.40;;;;;;6194619;23;20007;-84
2022/04/19 14:56:29;;;;;;;3.28;1.40;;;31.30;36.90;;;;;;6194648;23;20013;-82
2022/04/19 14:58:55;;;;;;;2.13;1.10;;;32.90;36.00;;;;;;6193641;23;19989;-80
2022/04/19 15:01:20;;;;;;;2.35;1.50;;;34.70;35.80;;;;;;6193213;23;20013;-81
2022/04/19 15:03:46;;;;;;;3.20;1.85;;;36.70;35.10;;;;;;6167284;23;20009;-82
2022/04/19 15:06:12;;;;;;;3.03;1.80;;;37.90;34.20;;;;;;6166843;23;20088;-80
2022/04/19 15:08:38;;;;;;;3.20;1.95;;;37.70;33.50;;;;;;6193313;23;20199;-78
2022/04/19 15:11:04;;;;;;;2.67;1.75;;;38.40;33.80;;;;;;6142886;23;20065;-79
2022/04/19 15:13:30;;;;;;;3.45;1.80;;;38.40;34.50;;;;;;6194289;23;20107;-81
2022/04/19 15:15:55;;;;;;;3.40;1.95;;;38.80;33.80;;;;;;6192660;23;20017;-78
2022/04/19 15:18:22;;;;;;;5.70;1.92;;;39.20;33.70;;;;;;6167536;23;20160;-81
2022/04/19 15:20:49;;;;;;;2.97;1.50;;;39.10;33.60;;;;;;6166909;23;20004;-77
2022/04/19 15:23:15;;;;;;;4.70;1.60;;;39.10;33.10;;;;;;6193698;23;20036;-78
2022/04/19 15:25:42;;;;;;;2.57;1.53;;;39.10;33.20;;;;;;6166512;23;20005;-82
2022/04/19 15:28:09;;;;;;;2.70;1.38;;;39.30;33.30;;;;;;6193468;23;19992;-77
2022/04/19 15:30:38;;;;;;;2.15;1.17;;;39.60;32.80;;;;;;6193312;23;20322;-79
2022/04/19 15:33:05;;;;;;;2.15;1.35;;;38.70;32.60;;;;;;6193767;23;20077;-80
2022/04/19 15:35:31;;;;;;;2.63;1.30;;;38.70;33.00;;;;;;6193434;23;20048;-81
2022/04/19 15:37:57;;;;;;;3.33;1.40;;;38.00;33.00;;;;;;6192662;23;20072;-82
2022/04/19 15:40:23;;;;;;;2.97;1.20;;;38.20;33.70;;;;;;6193890;23;20001;-79
2022/04/19 15:42:48;;;;;;;2.47;1.65;;;37.90;33.10;;;;;;6193018;23;20051;-80
2022/04/19 15:45:14;;;;;;;3.17;1.50;;;38.00;33.40;;;;;;6166600;23;20056;-79
2022/04/19 15:47:40;;;;;;;2.88;1.30;;;38.70;32.90;;;;;;6192593;23;20001;-80
2022/04/19 15:50:09;;;;;;;2.70;1.60;;;37.60;33.20;;;;;;6167413;23;20023;-78
2022/04/19 15:52:35;;;;;;;2.40;1.35;;;37.60;33.20;;;;;;6193901;23;20040;-84
2022/04/19 15:55:01;;;;;;;2.65;1.67;;;37.90;33.40;;;;;;6193129;23;20187;-79
2022/04/19 15:57:27;;;;;;;2.95;1.60;;;38.20;32.90;;;;;;6193934;23;19997;-82
2022/04/19 15:59:52;;;;;;;2.72;1.38;;;38.60;33.30;;;;;;6192966;23;20060;-81
2022/04/19 16:02:18;;;;;;;2.47;1.48;;;38.60;32.90;;;;;;6166175;23;20068;-78
2022/04/19 16:04:44;;;;;;;3.85;1.52;;;38.20;33.10;;;;;;6166970;23;20216;-79
2022/04/19 16:07:10;;;;;;;2.22;1.55;;;38.50;33.90;;;;;;6190168;23;20009;-83
2022/04/19 16:09:36;;;;;;;2.78;1.70;;;37.30;33.60;;;;;;6194163;23;20231;-76
2022/04/19 16:12:02;;;;;;;2.78;1.67;;;35.90;34.00;;;;;;6194043;23;20182;-75
2022/04/19 16:14:27;;;;;;;2.10;1.58;;;34.90;34.90;;;;;;6194587;23;19989;-76
2022/04/19 16:25:07;;;;;;;3.80;1.55;;;36.10;34.00;;;;;;6194198;23;20060;-77
2022/04/19 16:27:33;;;;;;;3.78;1.77;;;34.80;34.20;;;;;;6194380;23;20005;-77
2022/04/19 16:30:00;;;;;;;3.00;1.70;;;34.00;35.00;;;;;;6193841;23;20008;-77
2022/04/19 16:32:26;;;;;;;2.63;1.40;;;34.20;34.70;;;;;;6167153;23;20347;-78
2022/04/19 16:34:52;;;;;;;3.75;1.15;;;34.30;35.00;;;;;;6167295;23;20005;-77
2022/04/19 16:37:18;;;;;;;3.10;1.50;;;34.20;34.70;;;;;;6194601;23;20001;-78
2022/04/19 16:39:44;;;;;;;3.10;1.23;;;34.30;34.50;;;;;;6193605;23;20005;-78
2022/04/19 16:42:11;;;;;;;3.50;1.30;;;34.40;34.60;;;;;;6194462;23;20179;-78
2022/04/19 16:44:36;;;;;;;4.43;1.50;;;34.80;34.80;;;;;;6194640;23;20001;-78
2022/04/19 16:47:02;;;;;;;4.55;1.55;;;34.00;34.60;;;;;;6192773;23;20245;-78
2022/04/19 16:49:29;;;;;;;2.92;1.58;;;33.90;34.90;;;;;;6194504;23;20283;-77
2022/04/19 16:51:55;;;;;;;3.72;1.60;;;33.20;34.80;;;;;;6167284;23;20304;-78
2022/04/19 16:54:21;;;;;;;4.63;1.60;;;32.60;36.10;;;;;;6194040;23;19985;-78
2022/04/19 16:56:46;;;;;;;2.72;1.40;;;33.00;35.10;;;;;;6193321;23;20159;-76
2022/04/19 16:59:12;;;;;;;3.70;1.77;;;33.30;35.20;;;;;;6168098;23;20005;-77
2022/04/19 17:01:38;;;;;;;2.65;1.42;;;33.70;35.10;;;;;;6193500;23;20009;-77
2022/04/19 17:04:06;;;;;;;3.50;1.45;;;34.30;35.00;;;;;;6193487;23;20009;-77
2022/04/19 17:06:34;;;;;;;2.80;1.20;;;34.50;34.50;;;;;;6194445;23;20060;-77
2022/04/19 17:09:02;;;;;;;3.63;1.45;;;33.60;35.10;;;;;;6193459;23;20310;-77
2022/04/19 17:11:28;;;;;;;2.47;1.40;;;32.60;35.10;;;;;;6194045;23;20064;-76
2022/04/19 17:13:54;;;;;;;2.53;1.20;;;31.20;35.70;;;;;;6167593;23;20103;-77
2022/04/19 17:16:20;;;;;;;3.15;1.60;;;29.20;36.70;;;;;;6193390;23;20016;-77
2022/04/19 17:18:46;;;;;;;2.88;1.30;;;27.70;37.90;;;;;;6193755;23;20057;-77
2022/04/19 17:21:12;;;;;;;4.15;1.65;;;26.40;39.30;;;;;;6193733;23;20180;-78
2022/04/19 17:23:39;;;;;;;3.42;1.95;;;25.40;40.20;;;;;;6193662;23;20228;-77
2022/04/19 17:26:04;;;;;;;3.55;1.40;;;24.40;41.30;;;;;;6193436;23;20257;-77
2022/04/19 17:28:31;;;;;;;2.20;1.35;;;23.70;42.20;;;;;;6194942;23;20051;-77
2022/04/19 17:30:57;;;;;;;4.30;1.98;;;22.90;43.00;;;;;;6168233;23;20199;-78
2022/04/19 17:33:24;;;;;;;6.00;2.25;;;22.30;43.60;;;;;;6169759;23;20012;-77
2022/04/19 17:35:50;;;;;;;2.55;1.55;;;21.80;44.60;;;;;;6195162;23;20032;-77
2022/04/19 17:38:16;;;;;;;3.83;1.85;;;21.70;44.70;;;;;;6195647;23;20194;-77
2022/04/19 17:40:42;;;;;;;4.25;2.30;;;21.20;45.30;;;;;;6195756;23;20076;-77
2022/04/19 17:43:09;;;;;;;5.07;2.38;;;20.90;46.40;;;;;;6144208;23;20009;-76
2022/04/19 17:45:35;;;;;;;4.45;2.90;;;20.80;46.40;;;;;;6194494;23;20024;-77
2022/04/19 17:48:01;;;;;;;4.88;1.85;;;20.70;46.60;;;;;;6195150;23;19997;-78
2022/04/19 17:58:42;;;;;;;5.53;1.77;;;19.70;47.70;;;;;;6194865;23;20032;-79
2022/04/19 18:01:09;;;;;;;6.50;2.20;;;19.40;48.40;;;;;;6194329;23;20032;-77
2022/04/19 18:03:36;;;;;;;3.72;1.70;;;19.10;49.00;;;;;;6169326;23;20191;-77
2022/04/19 18:06:03;;;;;;;5.72;2.00;;;18.90;49.20;;;;;;6195177;23;20008;-77
2022/04/19 18:08:29;;;;;;;4.65;1.77;;;18.70;49.50;;;;;;6169414;23;20182;-78
2022/04/19 18:10:55;;;;;;;5.78;1.80;;;18.60;50.60;;;;;;6194941;23;20056;-78
2022/04/19 18:13:20;;;;;;;4.30;1.70;;;18.40;50.80;;;;;;6168462;23;19993;-78
2022/04/19 18:15:51;;;;;;;3.97;1.50;;;18.30;50.60;;;;;;6194090;23;20013;-79
2022/04/19 18:18:19;;;;;;;5.22;1.35;;;18.10;51.10;;;;;;6195374;23;20314;-78
2022/04/19 18:20:46;;;;;;;6.22;1.35;;;18.00;51.40;;;;;;6169122;23;19997;-78
2022/04/19 18:25:58;;;;;;;3.15;1.17;;;17.80;51.40;;;;;;6194850;23;20008;-78
2022/04/19 18:28:24;;;;;;;2.75;1.05;;;17.70;52.10;;;;;;6195357;23;20001;-78
2022/04/19 18:30:50;;;;;;;3.28;1.10;;;17.60;52.50;;;;;;6194303;23;20032;-80
2022/04/19 18:33:15;;;;;;;2.88;1.20;;;17.50;52.70;;;;;;6195389;23;20048;-78
2022/04/19 18:35:41;;;;;;;4.55;1.30;;;17.40;52.90;;;;;;6195141;23;20118;-77
2022/04/19 18:38:07;;;;;;;3.05;0.90;;;17.30;53.10;;;;;;6194030;23;20409;-78
2022/04/19 18:40:33;;;;;;;2.85;1.20;;;17.20;53.30;;;;;;6195147;23;20005;-77
2022/04/19 18:43:05;;;;;;;2.40;1.20;;;17.10;53.70;;;;;;6194687;23;20012;-78
2022/04/19 18:45:30;;;;;;;4.85;1.40;;;17.00;54.30;;;;;;6193582;23;20005;-77
2022/04/19 18:47:58;;;;;;;2.63;1.10;;;16.90;54.90;;;;;;6194816;23;20005;-77
2022/04/19 18:50:24;;;;;;;2.43;1.10;;;16.80;54.80;;;;;;6194828;23;20012;-77
2022/04/19 18:52:50;;;;;;;4.28;1.63;;;16.60;55.30;;;;;;6194986;23;20156;-77
2022/04/19 18:55:16;;;;;;;3.05;1.38;;;16.40;55.90;;;;;;6195100;23;20048;-77
2022/04/19 18:57:42;;;;;;;3.78;1.27;;;16.30;56.10;;;;;;6168751;23;20005;-77
2022/04/19 19:00:15;;;;;;;4.22;1.20;;;16.20;56.40;;;;;;6192950;23;20103;-77
2022/04/19 19:02:47;;;;;;;5.18;1.33;;;16.10;57.10;;;;;;6194451;23;20005;-77
2022/04/19 19:05:14;;;;;;;3.58;1.40;;;15.90;57.60;;;;;;6194441;23;20001;-77